Strasburg, Pennsylvania
Current Conditions -  °F | °C
As of 12:53 PM on Saturday 20 Dec 2014 (Local Time) from KLNS Reporting Station
Overcast Overcast  
Wind Chill: 33°   Ceiling: 2900
Heat Index: 33°   Visibility: 9mi
Dew Point: 20°   Wind: 0mph
Humidity: 59%   Direction: NA
Pressure: 30.25"   Gusts: NA
Location:  39.98°N, 76.18°W
Report Text: KLNS 201753Z 00000KT 9SM OVC029 01/M07 A3025 RMK AO2 SLP249 T00061067 10006 21011 56016
Loading
Personal Weather Stations






























Interactive Weather Map New forecast layout! Learn more

10-Day Weather Forecast

Advertisements
Track Severe Weather on mobile